Amphitrite — A8UJ2 — position and weather

sailwx.info

Track history (hours):
 
Tides and Currents Weather Stations Pressure Air Temp Water Temp Dewpoint Dewpoint Depression Visibility Wind Speed Wind Dir Waves Ship Positions

Amphitrite

Last reported at 2018-Jan-18 17:07 UTC. Time now 2018-Jan-22 06:39 UTC.
Position N 35°51' E 030°26'.

Length 183 m; draft 10.2 m.

Type: Tanker. MMSI: 636014505.

Date/timePositionNaut miles runAvg speedWind from/ knotsBaromVisibWave heightAir tempDewpointWater temp
2018-Jan-18 17:07N 35°51' E 030°26'312.0
2018-Jan-18 16:53N 35°51' E 030°23'17111.9
2018-Jan-18 02:34N 36°06' E 026°52'212.5
2018-Jan-18 02:26N 36°06' E 026°50'512.4
2018-Jan-18 02:00N 36°08' E 026°44'612.4
2018-Jan-18 01:30N 36°09' E 026°37'612.4
2018-Jan-18 01:00N 36°10' E 026°29'1312.7
2018-Jan-18 00:00N 36°12' E 026°14'112.9
2018-Jan-17 23:57N 36°12' E 026°13'  
2018-Jan-08 23:47N 35°53' E 032°13'712.8
2018-Jan-08 23:12N 35°53' E 032°04'313.0
2018-Jan-08 23:00N 35°53' E 032°00'2813.3
2018-Jan-08 20:52N 35°52' E 031°25'513.2
2018-Jan-08 20:30N 35°52' E 031°20'713.2
2018-Jan-08 20:01N 35°52' E 031°11'713.2
2018-Jan-08 19:27N 35°52' E 031°02'613.3
2018-Jan-08 19:00N 35°52' E 030°55'813.3
2018-Jan-08 18:25N 35°51' E 030°45'613.4
2018-Jan-08 18:01N 35°51' E 030°39'  
Track history (hours):
 
Tides and Currents Weather Stations Pressure Air Temp Water Temp Dewpoint Dewpoint Depression Visibility Wind Speed Wind Dir Waves Ship Positions

Amphitrite

Last reported at 2018-Jan-18 17:07 UTC. Time now 2018-Jan-22 06:39 UTC.
Position N 35°51' E 030°26'.

Length 183 m; draft 10.2 m.

Type: Tanker. MMSI: 636014505.

Date/timePositionNaut miles runAvg speedWind from/ knotsBaromVisibWave heightAir tempDewpointWater temp
2018-Jan-18 17:07N 35°51' E 030°26'312.0
2018-Jan-18 16:53N 35°51' E 030°23'17111.9
2018-Jan-18 02:34N 36°06' E 026°52'212.5
2018-Jan-18 02:26N 36°06' E 026°50'512.4
2018-Jan-18 02:00N 36°08' E 026°44'612.4
2018-Jan-18 01:30N 36°09' E 026°37'612.4
2018-Jan-18 01:00N 36°10' E 026°29'1312.7
2018-Jan-18 00:00N 36°12' E 026°14'112.9
2018-Jan-17 23:57N 36°12' E 026°13'  
2018-Jan-08 23:47N 35°53' E 032°13'712.8
2018-Jan-08 23:12N 35°53' E 032°04'313.0
2018-Jan-08 23:00N 35°53' E 032°00'2813.3
2018-Jan-08 20:52N 35°52' E 031°25'513.2
2018-Jan-08 20:30N 35°52' E 031°20'713.2
2018-Jan-08 20:01N 35°52' E 031°11'713.2
2018-Jan-08 19:27N 35°52' E 031°02'613.3
2018-Jan-08 19:00N 35°52' E 030°55'813.3
2018-Jan-08 18:25N 35°51' E 030°45'613.4
2018-Jan-08 18:01N 35°51' E 030°39'  

Dump ship's entire track history